Time;durP1;ratioP1;P1;durP2;ratioP2;P2;SDS_P1;SDS_P2;PMS_P1;PMS_P2;Temp;Humidity;BMP_temperature;BMP_pressure;BME280_temperature;BME280_humidity;BME280_pressure;Samples;Min_cycle;Max_cycle;Signal;HPM_P1;HPM_P2
2021/12/31 00:07:00;;;;;;;8.23;4.65;;;;;;;;;;6113938;23;20219;-91
2021/12/31 00:10:06;;;;;;;6.85;4.35;;;;;;;;;;6097706;23;20170;-92
2021/12/31 00:13:11;;;;;;;9.32;5.40;;;;;;;;;;6096429;23;20169;-91
2021/12/31 00:16:16;;;;;;;9.23;5.05;;;;;;;;;;6096801;23;20174;-92
2021/12/31 00:19:22;;;;;;;8.93;5.10;;;;;;;;;;6098361;23;20166;-92
2021/12/31 00:22:52;;;;;;;8.60;5.20;;;;;;;;;;6098639;23;20253;-92
2021/12/31 00:25:57;;;;;;;10.20;5.10;;;;;;;;;;6096250;23;20161;-91
2021/12/31 00:29:02;;;;;;;21.20;7.28;;;;;;;;;;6113848;23;20178;-93
2021/12/31 00:32:09;;;;;;;10.23;5.47;;;;;;;;;;6096921;23;20169;-93
2021/12/31 00:35:16;;;;;;;12.80;5.97;;;;;;;;;;6094775;23;20193;-92
2021/12/31 00:38:22;;;;;;;9.57;4.85;;;;;;;;;;6094596;23;20256;-92
2021/12/31 00:41:28;;;;;;;8.38;4.88;;;;;;;;;;6095244;23;20162;-92
2021/12/31 00:44:33;;;;;;;8.65;4.35;;;;;;;;;;6096850;23;20169;-93
2021/12/31 00:47:38;;;;;;;6.95;4.10;;;;;;;;;;6113847;23;20246;-91
2021/12/31 00:50:44;;;;;;;7.20;4.05;;;;;;;;;;6097375;23;20195;-91
2021/12/31 00:53:50;;;;;;;6.25;3.70;;;;;;;;;;6098095;23;20229;-91
2021/12/31 00:57:02;;;;;;;6.60;4.07;;;;;;;;;;6095669;23;20166;-91
2021/12/31 01:00:09;;;;;;;8.55;3.92;;;;;;;;;;6097577;23;20170;-92
2021/12/31 01:03:15;;;;;;;6.00;3.35;;;;;;;;;;6114028;23;20167;-92
2021/12/31 01:06:21;;;;;;;9.45;4.40;;;;;;;;;;6095927;23;20186;-92
2021/12/31 01:09:28;;;;;;;5.68;3.80;;;;;;;;;;6096361;23;20202;-91
2021/12/31 01:12:33;;;;;;;6.50;4.28;;;;;;;;;;6095169;23;20310;-92
2021/12/31 01:15:42;;;;;;;7.95;4.10;;;;;;;;;;6096522;23;20288;-92
2021/12/31 01:22:10;;;;;;;10.00;4.15;;;;;;;;;;6112004;23;20245;-91
2021/12/31 01:25:17;;;;;;;5.68;3.85;;;;;;;;;;6093520;23;20634;-90
2021/12/31 01:28:23;;;;;;;10.88;4.10;;;;;;;;;;6096816;23;20181;-92
2021/12/31 01:31:28;;;;;;;6.60;3.85;;;;;;;;;;6096551;23;20313;-91
2021/12/31 01:34:36;;;;;;;8.13;4.55;;;;;;;;;;6096728;23;20185;-92
2021/12/31 01:37:42;;;;;;;9.52;4.22;;;;;;;;;;6111955;23;20182;-93
2021/12/31 01:40:49;;;;;;;8.70;4.65;;;;;;;;;;6096016;23;20154;-92
2021/12/31 01:43:54;;;;;;;6.85;4.07;;;;;;;;;;6112168;23;20157;-91
2021/12/31 01:47:04;;;;;;;8.10;4.40;;;;;;;;;;6097622;23;20166;-91
2021/12/31 01:50:09;;;;;;;7.10;4.38;;;;;;;;;;6098721;23;20218;-93
2021/12/31 01:53:22;;;;;;;8.45;4.50;;;;;;;;;;6096759;23;20170;-91
2021/12/31 01:56:29;;;;;;;11.88;4.22;;;;;;;;;;6097868;23;20173;-91
2021/12/31 01:59:37;;;;;;;8.10;4.00;;;;;;;;;;6097462;23;20181;-91
2021/12/31 02:02:47;;;;;;;7.32;4.35;;;;;;;;;;6114389;23;20194;-91
2021/12/31 02:05:52;;;;;;;7.88;4.28;;;;;;;;;;6114732;23;20266;-91
2021/12/31 02:08:57;;;;;;;6.32;3.78;;;;;;;;;;6098329;23;20166;-93
2021/12/31 02:12:05;;;;;;;7.15;4.15;;;;;;;;;;6095301;23;20171;-93
2021/12/31 02:15:11;;;;;;;6.70;4.07;;;;;;;;;;6097540;23;20246;-91
2021/12/31 02:18:16;;;;;;;6.20;4.00;;;;;;;;;;6097027;23;20670;-92
2021/12/31 02:21:22;;;;;;;6.53;4.03;;;;;;;;;;6097213;23;20170;-91
2021/12/31 02:24:28;;;;;;;7.18;3.90;;;;;;;;;;6097046;23;20170;-92
2021/12/31 02:27:37;;;;;;;9.68;4.47;;;;;;;;;;6097926;23;20239;-91
2021/12/31 02:30:42;;;;;;;7.70;3.83;;;;;;;;;;6095917;23;20153;-92
2021/12/31 02:33:47;;;;;;;7.18;3.63;;;;;;;;;;6096173;23;20497;-92
2021/12/31 02:36:54;;;;;;;6.90;3.75;;;;;;;;;;6114626;23;20517;-94
2021/12/31 02:39:59;;;;;;;6.07;3.25;;;;;;;;;;6097779;23;20261;-92
2021/12/31 02:43:06;;;;;;;6.55;3.72;;;;;;;;;;6097698;23;20166;-91
2021/12/31 02:46:11;;;;;;;8.50;3.60;;;;;;;;;;6095886;23;20173;-92
2021/12/31 02:49:19;;;;;;;6.53;3.75;;;;;;;;;;6097622;23;20202;-92
2021/12/31 02:52:26;;;;;;;8.00;3.75;;;;;;;;;;6097246;23;20618;-91
2021/12/31 02:55:31;;;;;;;6.20;3.67;;;;;;;;;;6095929;23;20242;-91
2021/12/31 02:58:38;;;;;;;7.70;3.60;;;;;;;;;;6072911;23;20167;-92
2021/12/31 03:01:44;;;;;;;7.32;3.58;;;;;;;;;;6097945;23;20170;-92
2021/12/31 03:04:50;;;;;;;5.07;3.10;;;;;;;;;;6095340;23;20189;-91
2021/12/31 03:07:58;;;;;;;5.95;3.50;;;;;;;;;;6096257;23;20157;-94
2021/12/31 03:11:04;;;;;;;9.10;2.85;;;;;;;;;;6098705;23;20226;-92
2021/12/31 03:14:11;;;;;;;7.65;2.90;;;;;;;;;;6112686;23;20200;-91
2021/12/31 03:17:17;;;;;;;5.28;3.05;;;;;;;;;;6112390;23;20153;-91
2021/12/31 03:20:36;;;;;;;8.00;2.92;;;;;;;;;;6097041;23;20178;-92
2021/12/31 03:23:43;;;;;;;4.88;2.88;;;;;;;;;;6097659;23;20161;-93
2021/12/31 03:26:48;;;;;;;5.00;3.00;;;;;;;;;;6097322;23;20180;-91
2021/12/31 03:29:54;;;;;;;8.15;3.40;;;;;;;;;;6099463;23;20166;-93
2021/12/31 03:33:00;;;;;;;10.77;4.78;;;;;;;;;;6097605;23;20170;-92
2021/12/31 03:36:06;;;;;;;16.10;5.88;;;;;;;;;;6095790;23;20197;-93
2021/12/31 03:39:13;;;;;;;9.43;4.00;;;;;;;;;;6096250;23;20500;-92
2021/12/31 03:42:18;;;;;;;7.43;3.85;;;;;;;;;;6095290;23;20215;-91
2021/12/31 03:45:23;;;;;;;6.30;3.67;;;;;;;;;;6100589;23;20186;-90
2021/12/31 03:48:29;;;;;;;8.35;4.57;;;;;;;;;;6099450;23;20622;-92
2021/12/31 03:51:34;;;;;;;7.25;3.70;;;;;;;;;;6100241;23;20149;-92
2021/12/31 03:54:41;;;;;;;13.65;4.85;;;;;;;;;;6100111;23;20282;-90
2021/12/31 03:57:46;;;;;;;12.40;6.00;;;;;;;;;;6101784;23;20194;-89
2021/12/31 04:00:52;;;;;;;11.75;5.05;;;;;;;;;;6099800;23;20157;-90
2021/12/31 04:03:58;;;;;;;11.18;5.53;;;;;;;;;;6100550;23;20189;-91
2021/12/31 04:07:03;;;;;;;9.98;5.15;;;;;;;;;;6099801;23;20161;-90
2021/12/31 04:10:10;;;;;;;9.70;4.85;;;;;;;;;;6100023;23;20170;-90
2021/12/31 04:13:15;;;;;;;7.68;3.40;;;;;;;;;;6101119;23;20170;-91
2021/12/31 04:16:21;;;;;;;7.28;4.07;;;;;;;;;;6098414;23;20259;-91
2021/12/31 04:19:25;;;;;;;7.40;4.10;;;;;;;;;;6099420;23;20218;-87
2021/12/31 04:22:32;;;;;;;8.80;4.47;;;;;;;;;;6099564;23;20170;-88
2021/12/31 04:25:39;;;;;;;6.07;3.45;;;;;;;;;;6099484;23;20173;-90
2021/12/31 04:28:45;;;;;;;8.55;3.03;;;;;;;;;;6100269;23;20186;-91
2021/12/31 04:31:50;;;;;;;4.45;2.90;;;;;;;;;;6101764;23;20173;-91
2021/12/31 04:34:56;;;;;;;7.68;3.10;;;;;;;;;;6100477;23;20214;-91
2021/12/31 04:38:01;;;;;;;11.00;3.08;;;;;;;;;;6099415;23;20223;-91
2021/12/31 04:41:08;;;;;;;4.80;3.20;;;;;;;;;;6100211;23;20158;-91
2021/12/31 04:44:13;;;;;;;5.28;2.70;;;;;;;;;;6097160;23;20295;-91
2021/12/31 04:47:18;;;;;;;7.00;3.25;;;;;;;;;;6098393;23;20232;-92
2021/12/31 04:50:24;;;;;;;7.20;3.67;;;;;;;;;;6096902;23;20165;-92
2021/12/31 04:53:30;;;;;;;7.50;3.10;;;;;;;;;;6113057;23;20198;-91
2021/12/31 04:56:36;;;;;;;10.95;3.20;;;;;;;;;;6096283;23;20185;-92
2021/12/31 04:59:41;;;;;;;5.40;2.63;;;;;;;;;;6097369;23;20205;-93
2021/12/31 05:06:29;;;;;;;5.70;3.28;;;;;;;;;;6113406;23;20167;-90
2021/12/31 05:09:35;;;;;;;12.35;3.22;;;;;;;;;;6114094;23;20174;-93
2021/12/31 05:12:41;;;;;;;6.20;2.72;;;;;;;;;;6097563;23;20173;-92
2021/12/31 05:15:49;;;;;;;8.18;3.28;;;;;;;;;;6097570;23;20194;-92
2021/12/31 05:18:54;;;;;;;6.53;3.25;;;;;;;;;;6095877;23;20197;-92
2021/12/31 05:21:59;;;;;;;8.35;3.38;;;;;;;;;;6096942;23;20162;-92
2021/12/31 05:25:04;;;;;;;6.93;3.22;;;;;;;;;;6095966;23;20245;-91
2021/12/31 05:28:10;;;;;;;8.20;3.42;;;;;;;;;;6095911;23;20158;-94
2021/12/31 05:31:17;;;;;;;6.25;3.38;;;;;;;;;;6096993;23;20174;-92
2021/12/31 05:34:22;;;;;;;10.23;4.10;;;;;;;;;;6100855;23;20169;-91
2021/12/31 05:37:27;;;;;;;11.25;4.22;;;;;;;;;;6098350;23;20287;-91
2021/12/31 05:40:34;;;;;;;11.65;4.13;;;;;;;;;;6096712;23;20156;-91
2021/12/31 05:43:41;;;;;;;12.98;4.30;;;;;;;;;;6097612;23;20166;-92
2021/12/31 05:46:49;;;;;;;7.45;3.80;;;;;;;;;;6098686;23;20214;-92
2021/12/31 05:49:53;;;;;;;7.82;3.72;;;;;;;;;;6115596;23;20206;-92
2021/12/31 05:52:59;;;;;;;4.22;2.50;;;;;;;;;;6098723;23;20231;-93
2021/12/31 05:56:06;;;;;;;5.25;3.28;;;;;;;;;;6097227;23;20244;-92
2021/12/31 05:59:13;;;;;;;8.95;3.50;;;;;;;;;;6097779;23;20158;-93
2021/12/31 06:02:18;;;;;;;9.00;3.63;;;;;;;;;;6098549;23;20170;-92
2021/12/31 07:30:34;;;;;;;8.73;4.43;;;;;;;;;;6108133;23;20340;31
2021/12/31 09:51:35;;;;;;;16.48;8.13;;;;;;;;;;6175322;23;20200;-92
2021/12/31 09:54:49;;;;;;;16.17;7.20;;;;;;;;;;6203660;23;20201;-92
2021/12/31 09:57:54;;;;;;;11.98;6.63;;;;;;;;;;6188439;23;20179;-92
2021/12/31 10:24:37;;;;;;;8.65;4.55;;;;;;;;;;6135561;23;20267;-91
2021/12/31 10:27:47;;;;;;;8.60;4.82;;;;;;;;;;6186378;23;20172;-90
2021/12/31 10:30:56;;;;;;;11.82;4.97;;;;;;;;;;6186363;23;20470;-92
2021/12/31 10:34:01;;;;;;;8.57;5.40;;;;;;;;;;6186311;23;20164;-89
2021/12/31 10:37:15;;;;;;;9.65;5.65;;;;;;;;;;6184884;23;20274;-92
2021/12/31 10:40:29;;;;;;;9.65;5.65;;;;;;;;;;6183898;23;20219;-91
2021/12/31 10:43:34;;;;;;;11.10;5.38;;;;;;;;;;6185561;23;20163;-92
2021/12/31 10:46:40;;;;;;;11.10;6.30;;;;;;;;;;6187285;23;20191;-91
2021/12/31 10:50:03;;;;;;;9.75;5.10;;;;;;;;;;6185812;23;20223;-91
2021/12/31 10:53:11;;;;;;;7.25;4.47;;;;;;;;;;6186652;23;20169;-90
2021/12/31 10:56:19;;;;;;;7.75;4.38;;;;;;;;;;6187342;23;20562;-91
2021/12/31 10:59:26;;;;;;;7.68;3.92;;;;;;;;;;6186592;23;20228;-91
2021/12/31 11:02:34;;;;;;;21.15;8.93;;;;;;;;;;6186018;23;20171;-89
2021/12/31 11:05:40;;;;;;;7.25;4.38;;;;;;;;;;6186293;23;20167;-92
2021/12/31 11:08:47;;;;;;;7.45;4.20;;;;;;;;;;6187465;23;20217;-92
2021/12/31 11:16:15;;;;;;;7.97;3.28;;;;;;;;;;6208391;23;20211;-92
2021/12/31 11:19:20;;;;;;;7.05;3.28;;;;;;;;;;6190817;23;20272;-92
2021/12/31 11:22:28;;;;;;;4.82;2.67;;;;;;;;;;6172360;23;20200;-91
2021/12/31 11:25:34;;;;;;;6.28;3.60;;;;;;;;;;6174587;23;20220;-93
2021/12/31 11:28:40;;;;;;;4.72;2.78;;;;;;;;;;6174234;23;20172;-94
2021/12/31 11:31:49;;;;;;;3.90;2.28;;;;;;;;;;6173643;23;20232;-92
2021/12/31 11:35:09;;;;;;;4.45;2.38;;;;;;;;;;6175620;23;20152;-94
2021/12/31 11:38:18;;;;;;;8.90;4.20;;;;;;;;;;6174214;23;20252;-92
2021/12/31 11:41:24;;;;;;;7.30;2.80;;;;;;;;;;6175184;23;20165;-93
2021/12/31 11:44:31;;;;;;;5.13;2.40;;;;;;;;;;6175131;23;20177;-92
2021/12/31 11:47:46;;;;;;;6.13;3.70;;;;;;;;;;6173910;23;20192;-94
2021/12/31 11:51:04;;;;;;;5.00;2.38;;;;;;;;;;6175129;23;20161;-94
2021/12/31 11:54:19;;;;;;;4.70;1.80;;;;;;;;;;6174668;23;20193;-95
2021/12/31 11:57:30;;;;;;;7.32;2.10;;;;;;;;;;6175066;23;20187;-92
2021/12/31 12:00:36;;;;;;;5.43;2.20;;;;;;;;;;6173788;23;20166;-92
2021/12/31 12:03:44;;;;;;;3.80;2.20;;;;;;;;;;6173663;23;20172;-94
2021/12/31 12:06:54;;;;;;;4.40;1.77;;;;;;;;;;6175055;23;20616;-93
2021/12/31 12:10:19;;;;;;;3.80;2.00;;;;;;;;;;6176740;23;20168;-91
2021/12/31 12:17:13;;;;;;;4.50;2.50;;;;;;;;;;6177943;23;20220;-92
2021/12/31 12:20:23;;;;;;;9.45;3.30;;;;;;;;;;6178526;23;20161;-91
2021/12/31 12:23:30;;;;;;;6.07;1.80;;;;;;;;;;6179699;23;20185;-92
2021/12/31 12:26:40;;;;;;;8.18;1.60;;;;;;;;;;6177382;23;20192;-91
2021/12/31 12:29:45;;;;;;;2.85;1.90;;;;;;;;;;6178863;23;20309;-92
2021/12/31 12:50:29;;;;;;;4.75;1.73;;;;;;;;;;6169379;23;20209;-91
2021/12/31 12:53:36;;;;;;;5.07;1.50;;;;;;;;;;6157037;23;20220;-91
2021/12/31 12:56:41;;;;;;;4.93;1.80;;;;;;;;;;6158104;23;20248;-92
2021/12/31 12:59:47;;;;;;;5.72;1.70;;;;;;;;;;6159520;23;20168;-92
2021/12/31 13:02:53;;;;;;;4.25;1.45;;;;;;;;;;6159040;23;20172;-94
2021/12/31 17:21:17;;;;;;;16.85;8.90;;;;;;;;;;6200648;23;20213;-92
2021/12/31 17:27:45;;;;;;;18.85;9.18;;;;;;;;;;6194034;23;20188;-93
2021/12/31 21:07:51;;;;;;;63.45;18.33;;;;;;;;;;6147938;23;20216;-92
2021/12/31 21:10:56;;;;;;;68.50;21.08;;;;;;;;;;6188075;23;20254;-91
2021/12/31 21:14:02;;;;;;;76.25;17.15;;;;;;;;;;6187675;23;20156;-92
2021/12/31 21:17:07;;;;;;;51.13;15.80;;;;;;;;;;6188931;23;20223;-91
2021/12/31 21:20:12;;;;;;;43.22;15.38;;;;;;;;;;6188054;23;20278;-91
2021/12/31 21:23:21;;;;;;;49.55;17.73;;;;;;;;;;6187695;23;20192;-91
2021/12/31 21:26:26;;;;;;;51.30;20.40;;;;;;;;;;6185984;23;20255;-91
2021/12/31 21:29:32;;;;;;;66.82;18.90;;;;;;;;;;6187768;23;20176;-92
2021/12/31 21:32:37;;;;;;;40.58;15.82;;;;;;;;;;6187623;23;20204;-91
2021/12/31 21:35:42;;;;;;;54.35;16.88;;;;;;;;;;6185505;23;20215;-92
2021/12/31 21:38:49;;;;;;;79.93;16.33;;;;;;;;;;6184639;23;20151;-92
2021/12/31 21:41:58;;;;;;;67.68;15.57;;;;;;;;;;6185443;23;20168;-91
2021/12/31 21:45:05;;;;;;;55.78;14.35;;;;;;;;;;6186620;23;20172;-92
2021/12/31 21:48:11;;;;;;;52.65;14.00;;;;;;;;;;6186755;23;20171;-92
2021/12/31 21:51:16;;;;;;;31.98;12.98;;;;;;;;;;6184584;23;20171;-92
2021/12/31 21:54:22;;;;;;;30.80;12.32;;;;;;;;;;6185307;23;20211;-92
2021/12/31 21:57:28;;;;;;;41.70;16.27;;;;;;;;;;6186007;23;20247;-91
2021/12/31 22:30:08;;;;;;;39.58;15.85;;;;;;;;;;6144805;23;20173;-92
2021/12/31 22:33:14;;;;;;;33.63;14.40;;;;;;;;;;6129070;23;20176;-92
2021/12/31 22:36:20;;;;;;;65.90;28.98;;;;;;;;;;6146074;23;20217;-92
2021/12/31 22:39:27;;;;;;;36.38;14.32;;;;;;;;;;6145301;23;20186;-91
2021/12/31 22:42:32;;;;;;;33.95;15.10;;;;;;;;;;6144914;23;20161;-91
2021/12/31 22:45:39;;;;;;;31.13;14.82;;;;;;;;;;6146287;23;20177;-91
2021/12/31 22:48:44;;;;;;;31.10;13.85;;;;;;;;;;6128469;23;20170;-92
2021/12/31 22:51:50;;;;;;;37.53;15.73;;;;;;;;;;6144723;23;20209;-93
2021/12/31 22:54:55;;;;;;;46.97;19.38;;;;;;;;;;6129271;23;20173;-93
2021/12/31 22:58:01;;;;;;;38.15;17.38;;;;;;;;;;6143961;23;20197;-92
2021/12/31 23:01:12;;;;;;;32.53;14.63;;;;;;;;;;6126602;23;20181;-91
2021/12/31 23:04:18;;;;;;;27.23;13.15;;;;;;;;;;6143381;23;20173;-91
2021/12/31 23:07:24;;;;;;;60.17;27.83;;;;;;;;;;6125588;23;20173;-92
2021/12/31 23:10:31;;;;;;;30.33;14.52;;;;;;;;;;6141960;23;20169;-91
2021/12/31 23:13:36;;;;;;;49.33;23.80;;;;;;;;;;6139898;23;20217;-92
2021/12/31 23:16:44;;;;;;;65.43;29.37;;;;;;;;;;6142673;23;20454;-91
2021/12/31 23:19:51;;;;;;;50.85;20.52;;;;;;;;;;6143643;23;20176;-92
2021/12/31 23:22:57;;;;;;;29.35;14.48;;;;;;;;;;6126266;23;20190;-91
2021/12/31 23:26:02;;;;;;;26.05;11.73;;;;;;;;;;6127974;23;20169;-91
2021/12/31 23:29:08;;;;;;;25.27;10.73;;;;;;;;;;6114417;23;20242;-92
2021/12/31 23:32:15;;;;;;;20.33;10.07;;;;;;;;;;6116501;23;20173;-92
2021/12/31 23:35:20;;;;;;;17.60;9.43;;;;;;;;;;6114887;23;20174;-91
2021/12/31 23:38:26;;;;;;;18.30;8.90;;;;;;;;;;6115933;23;20184;-92
2021/12/31 23:41:43;;;;;;;21.08;9.57;;;;;;;;;;6114760;23;20190;-91
2021/12/31 23:44:48;;;;;;;23.67;11.32;;;;;;;;;;6114424;23;20185;-92
2021/12/31 23:47:54;;;;;;;22.42;10.63;;;;;;;;;;6130669;23;20161;-91
2021/12/31 23:51:00;;;;;;;20.65;10.25;;;;;;;;;;6112689;23;20161;-93
2021/12/31 23:54:05;;;;;;;23.83;10.38;;;;;;;;;;6114515;23;20198;-92
2021/12/31 23:57:11;;;;;;;25.38;10.43;;;;;;;;;;6132883;23;20174;-93
